sensor_id;sensor_type;location;lat;lon;timestamp;pressure;altitude;pressure_sealevel;temperature;humidity
77975;BME280;67164;51.202;0.278;2024-03-06T00:01:25;101472.23;;;21.35;38.50
77975;BME280;67164;51.202;0.278;2024-03-06T00:03:50;101476.63;;;21.32;38.52
77975;BME280;67164;51.202;0.278;2024-03-06T00:06:16;101474.67;;;21.24;38.53
77975;BME280;67164;51.202;0.278;2024-03-06T00:08:42;101477.03;;;21.06;38.74
77975;BME280;67164;51.202;0.278;2024-03-06T00:11:08;101480.73;;;21.34;38.71
77975;BME280;67164;51.202;0.278;2024-03-06T00:13:33;101481.15;;;21.13;38.57
77975;BME280;67164;51.202;0.278;2024-03-06T00:15:59;101486.37;;;21.10;38.56
77975;BME280;67164;51.202;0.278;2024-03-06T00:18:25;101485.67;;;21.02;38.63
77975;BME280;67164;51.202;0.278;2024-03-06T00:20:51;101485.01;;;21.20;38.65
77975;BME280;67164;51.202;0.278;2024-03-06T00:23:16;101486.26;;;20.90;38.72
77975;BME280;67164;51.202;0.278;2024-03-06T00:25:42;101485.57;;;21.06;38.76
77975;BME280;67164;51.202;0.278;2024-03-06T00:28:08;101490.09;;;21.27;38.75
77975;BME280;67164;51.202;0.278;2024-03-06T00:30:33;101491.42;;;20.76;38.79
77975;BME280;67164;51.202;0.278;2024-03-06T00:32:59;101495.48;;;20.70;38.78
77975;BME280;67164;51.202;0.278;2024-03-06T00:35:25;101497.24;;;20.64;38.82
77975;BME280;67164;51.202;0.278;2024-03-06T00:37:52;101497.06;;;21.13;38.75
77975;BME280;67164;51.202;0.278;2024-03-06T00:40:16;101497.67;;;20.62;38.72
77975;BME280;67164;51.202;0.278;2024-03-06T00:42:42;101498.93;;;21.05;38.79
77975;BME280;67164;51.202;0.278;2024-03-06T00:45:08;101502.41;;;20.49;38.84
77975;BME280;67164;51.202;0.278;2024-03-06T00:47:34;101507.23;;;20.78;38.74
77975;BME280;67164;51.202;0.278;2024-03-06T00:49:59;101506.52;;;20.77;38.76
77975;BME280;67164;51.202;0.278;2024-03-06T00:52:25;101510.58;;;20.55;38.69
77975;BME280;67164;51.202;0.278;2024-03-06T00:54:51;101514.25;;;20.94;38.75
77975;BME280;67164;51.202;0.278;2024-03-06T00:57:17;101514.42;;;20.93;38.78
77975;BME280;67164;51.202;0.278;2024-03-06T00:59:43;101519.70;;;20.63;38.79
77975;BME280;67164;51.202;0.278;2024-03-06T01:02:09;101519.03;;;20.55;38.86
77975;BME280;67164;51.202;0.278;2024-03-06T01:04:34;101518.34;;;20.61;38.84
77975;BME280;67164;51.202;0.278;2024-03-06T01:07:00;101519.76;;;20.61;38.76
77975;BME280;67164;51.202;0.278;2024-03-06T01:09:26;101514.71;;;20.56;38.81
77975;BME280;67164;51.202;0.278;2024-03-06T01:11:52;101512.87;;;20.87;38.71
77975;BME280;67164;51.202;0.278;2024-03-06T01:14:18;101513.97;;;20.81;38.77
77975;BME280;67164;51.202;0.278;2024-03-06T01:16:43;101512.42;;;20.57;38.73
77975;BME280;67164;51.202;0.278;2024-03-06T01:19:09;101509.32;;;20.54;38.71
77975;BME280;67164;51.202;0.278;2024-03-06T01:21:34;101514.11;;;20.73;38.71
77975;BME280;67164;51.202;0.278;2024-03-06T01:24:00;101514.33;;;20.71;38.72
77975;BME280;67164;51.202;0.278;2024-03-06T01:26:26;101514.49;;;20.75;38.65
77975;BME280;67164;51.202;0.278;2024-03-06T01:28:52;101517.35;;;20.65;38.71
77975;BME280;67164;51.202;0.278;2024-03-06T01:31:18;101518.99;;;20.43;38.67
77975;BME280;67164;51.202;0.278;2024-03-06T01:33:43;101518.81;;;20.69;38.62
77975;BME280;67164;51.202;0.278;2024-03-06T01:36:09;101524.62;;;20.66;38.61
77975;BME280;67164;51.202;0.278;2024-03-06T01:38:35;101522.30;;;20.66;38.61
77975;BME280;67164;51.202;0.278;2024-03-06T01:41:01;101522.92;;;20.63;38.60
77975;BME280;67164;51.202;0.278;2024-03-06T01:43:27;101524.85;;;20.41;38.55
77975;BME280;67164;51.202;0.278;2024-03-06T01:45:53;101526.84;;;20.52;38.70
77975;BME280;67164;51.202;0.278;2024-03-06T01:48:21;101525.12;;;20.55;38.62
77975;BME280;67164;51.202;0.278;2024-03-06T01:50:44;101526.78;;;20.51;38.62
77975;BME280;67164;51.202;0.278;2024-03-06T01:53:10;101530.29;;;20.23;38.63
77975;BME280;67164;51.202;0.278;2024-03-06T01:55:36;101531.89;;;20.46;38.68
77975;BME280;67164;51.202;0.278;2024-03-06T01:58:01;101530.93;;;20.54;38.53
77975;BME280;67164;51.202;0.278;2024-03-06T02:00:27;101532.20;;;20.02;38.51
77975;BME280;67164;51.202;0.278;2024-03-06T02:02:52;101529.53;;;20.50;38.52
77975;BME280;67164;51.202;0.278;2024-03-06T02:05:19;101531.74;;;20.55;38.57
77975;BME280;67164;51.202;0.278;2024-03-06T02:07:45;101530.84;;;20.59;38.58
77975;BME280;67164;51.202;0.278;2024-03-06T02:10:10;101530.58;;;20.52;38.72
77975;BME280;67164;51.202;0.278;2024-03-06T02:12:35;101528.88;;;20.60;38.62
77975;BME280;67164;51.202;0.278;2024-03-06T02:15:01;101533.57;;;20.60;39.00
77975;BME280;67164;51.202;0.278;2024-03-06T02:17:27;101533.45;;;20.19;38.96
77975;BME280;67164;51.202;0.278;2024-03-06T02:19:53;101538.83;;;20.18;39.24
77975;BME280;67164;51.202;0.278;2024-03-06T02:22:19;101540.80;;;20.23;39.24
77975;BME280;67164;51.202;0.278;2024-03-06T02:24:48;101541.43;;;19.75;39.25
77975;BME280;67164;51.202;0.278;2024-03-06T02:27:10;101538.69;;;20.39;39.03
77975;BME280;67164;51.202;0.278;2024-03-06T02:29:35;101535.75;;;20.41;39.01
77975;BME280;67164;51.202;0.278;2024-03-06T02:32:01;101529.17;;;20.06;39.13
77975;BME280;67164;51.202;0.278;2024-03-06T02:34:27;101524.61;;;20.11;39.07
77975;BME280;67164;51.202;0.278;2024-03-06T02:36:53;101521.30;;;19.87;39.06
77975;BME280;67164;51.202;0.278;2024-03-06T02:39:20;101523.04;;;20.15;39.09
77975;BME280;67164;51.202;0.278;2024-03-06T02:41:44;101522.00;;;20.17;39.02
77975;BME280;67164;51.202;0.278;2024-03-06T02:44:10;101518.88;;;20.04;39.11
77975;BME280;67164;51.202;0.278;2024-03-06T02:46:36;101521.01;;;20.04;38.92
77975;BME280;67164;51.202;0.278;2024-03-06T02:49:02;101520.29;;;20.24;38.93
77975;BME280;67164;51.202;0.278;2024-03-06T02:51:27;101516.58;;;20.31;38.82
77975;BME280;67164;51.202;0.278;2024-03-06T02:53:53;101518.57;;;20.21;39.00
77975;BME280;67164;51.202;0.278;2024-03-06T02:56:20;101513.67;;;20.54;38.81
77975;BME280;67164;51.202;0.278;2024-03-06T02:58:45;101510.72;;;20.47;39.01
77975;BME280;67164;51.202;0.278;2024-03-06T03:01:11;101509.27;;;20.07;38.89
77975;BME280;67164;51.202;0.278;2024-03-06T03:03:36;101512.82;;;19.99;38.88
77975;BME280;67164;51.202;0.278;2024-03-06T03:06:03;101512.10;;;20.15;38.75
77975;BME280;67164;51.202;0.278;2024-03-06T03:08:28;101512.77;;;20.16;38.78
77975;BME280;67164;51.202;0.278;2024-03-06T03:10:54;101512.16;;;20.15;38.76
77975;BME280;67164;51.202;0.278;2024-03-06T03:13:20;101513.60;;;20.19;38.72
77975;BME280;67164;51.202;0.278;2024-03-06T03:15:45;101514.84;;;20.23;38.68
77975;BME280;67164;51.202;0.278;2024-03-06T03:18:11;101517.34;;;20.60;38.77
77975;BME280;67164;51.202;0.278;2024-03-06T03:20:37;101513.78;;;20.27;38.68
77975;BME280;67164;51.202;0.278;2024-03-06T03:23:02;101508.23;;;20.59;38.55
77975;BME280;67164;51.202;0.278;2024-03-06T03:25:28;101508.86;;;20.27;38.63
77975;BME280;67164;51.202;0.278;2024-03-06T03:27:54;101513.73;;;20.28;38.55
77975;BME280;67164;51.202;0.278;2024-03-06T03:30:20;101517.10;;;20.29;38.51
77975;BME280;67164;51.202;0.278;2024-03-06T03:32:46;101515.66;;;20.43;38.41
77975;BME280;67164;51.202;0.278;2024-03-06T03:35:11;101515.63;;;20.36;38.48
77975;BME280;67164;51.202;0.278;2024-03-06T03:37:37;101519.04;;;20.98;38.26
77975;BME280;67164;51.202;0.278;2024-03-06T03:40:03;101521.23;;;20.49;38.51
77975;BME280;67164;51.202;0.278;2024-03-06T03:42:29;101520.64;;;20.19;38.29
77975;BME280;67164;51.202;0.278;2024-03-06T03:44:54;101519.66;;;20.58;38.39
77975;BME280;67164;51.202;0.278;2024-03-06T03:47:20;101517.86;;;20.31;38.39
77975;BME280;67164;51.202;0.278;2024-03-06T03:49:45;101518.90;;;20.42;38.33
77975;BME280;67164;51.202;0.278;2024-03-06T03:52:13;101515.80;;;20.31;38.40
77975;BME280;67164;51.202;0.278;2024-03-06T03:54:37;101516.42;;;20.60;38.18
77975;BME280;67164;51.202;0.278;2024-03-06T03:57:03;101516.72;;;20.82;38.10
77975;BME280;67164;51.202;0.278;2024-03-06T03:59:28;101519.66;;;20.29;38.22
77975;BME280;67164;51.202;0.278;2024-03-06T04:01:54;101520.80;;;20.66;38.04
77975;BME280;67164;51.202;0.278;2024-03-06T04:04:20;101526.78;;;20.83;37.82
77975;BME280;67164;51.202;0.278;2024-03-06T04:06:46;101525.67;;;20.60;38.05
77975;BME280;67164;51.202;0.278;2024-03-06T04:09:12;101533.14;;;21.07;37.78
77975;BME280;67164;51.202;0.278;2024-03-06T04:11:38;101529.35;;;20.79;37.76
77975;BME280;67164;51.202;0.278;2024-03-06T04:14:03;101528.46;;;21.00;37.51
77975;BME280;67164;51.202;0.278;2024-03-06T04:16:29;101532.20;;;20.69;37.54
77975;BME280;67164;51.202;0.278;2024-03-06T04:18:55;101534.61;;;20.98;37.47
77975;BME280;67164;51.202;0.278;2024-03-06T04:21:21;101536.32;;;20.80;37.34
77975;BME280;67164;51.202;0.278;2024-03-06T04:23:46;101538.47;;;21.09;37.19
77975;BME280;67164;51.202;0.278;2024-03-06T04:26:12;101542.53;;;21.12;37.09
77975;BME280;67164;51.202;0.278;2024-03-06T04:28:37;101544.14;;;21.19;37.07
77975;BME280;67164;51.202;0.278;2024-03-06T04:31:05;101544.57;;;20.89;37.06
77975;BME280;67164;51.202;0.278;2024-03-06T04:33:29;101549.81;;;20.97;37.01
77975;BME280;67164;51.202;0.278;2024-03-06T04:35:55;101549.68;;;21.31;36.80
77975;BME280;67164;51.202;0.278;2024-03-06T04:38:20;101549.34;;;21.02;36.82
77975;BME280;67164;51.202;0.278;2024-03-06T04:40:46;101551.49;;;21.26;36.81
77975;BME280;67164;51.202;0.278;2024-03-06T04:43:12;101555.99;;;21.24;36.78
77975;BME280;67164;51.202;0.278;2024-03-06T04:45:38;101560.41;;;21.18;36.83
77975;BME280;67164;51.202;0.278;2024-03-06T04:48:04;101562.85;;;21.14;36.91
77975;BME280;67164;51.202;0.278;2024-03-06T04:50:29;101563.29;;;21.11;36.92
77975;BME280;67164;51.202;0.278;2024-03-06T04:52:55;101565.34;;;21.09;36.94
77975;BME280;67164;51.202;0.278;2024-03-06T04:55:21;101568.85;;;21.09;36.95
77975;BME280;67164;51.202;0.278;2024-03-06T04:57:47;101573.85;;;21.30;36.98
77975;BME280;67164;51.202;0.278;2024-03-06T05:00:13;101573.72;;;21.22;37.08
77975;BME280;67164;51.202;0.278;2024-03-06T05:02:39;101574.06;;;20.87;37.11
77975;BME280;67164;51.202;0.278;2024-03-06T05:05:04;101572.34;;;21.15;37.02
77975;BME280;67164;51.202;0.278;2024-03-06T05:07:30;101573.00;;;20.87;37.06
77975;BME280;67164;51.202;0.278;2024-03-06T05:09:55;101571.79;;;21.29;37.13
77975;BME280;67164;51.202;0.278;2024-03-06T05:12:20;101575.46;;;20.72;37.15
77975;BME280;67164;51.202;0.278;2024-03-06T05:14:46;101579.74;;;20.67;37.22
77975;BME280;67164;51.202;0.278;2024-03-06T05:17:11;101585.27;;;20.88;37.18
77975;BME280;67164;51.202;0.278;2024-03-06T05:19:37;101588.78;;;20.56;37.28
77975;BME280;67164;51.202;0.278;2024-03-06T05:22:03;101587.95;;;21.03;37.21
77975;BME280;67164;51.202;0.278;2024-03-06T05:24:29;101588.25;;;20.55;37.22
77975;BME280;67164;51.202;0.278;2024-03-06T05:26:54;101592.14;;;20.72;37.39
77975;BME280;67164;51.202;0.278;2024-03-06T05:29:20;101594.64;;;20.46;37.36
77975;BME280;67164;51.202;0.278;2024-03-06T05:31:46;101594.44;;;20.96;37.32
77975;BME280;67164;51.202;0.278;2024-03-06T05:34:11;101600.54;;;20.72;37.25
77975;BME280;67164;51.202;0.278;2024-03-06T05:36:37;101604.16;;;20.99;37.22
77975;BME280;67164;51.202;0.278;2024-03-06T05:39:03;101608.15;;;20.75;37.18
77975;BME280;67164;51.202;0.278;2024-03-06T05:41:29;101611.82;;;20.40;37.28
77975;BME280;67164;51.202;0.278;2024-03-06T05:43:54;101617.28;;;20.92;37.21
77975;BME280;67164;51.202;0.278;2024-03-06T05:46:21;101619.00;;;20.63;37.34
77975;BME280;67164;51.202;0.278;2024-03-06T05:48:46;101617.29;;;20.86;37.32
77975;BME280;67164;51.202;0.278;2024-03-06T05:51:11;101617.96;;;20.70;37.49
77975;BME280;67164;51.202;0.278;2024-03-06T05:53:37;101618.19;;;20.50;37.41
77975;BME280;67164;51.202;0.278;2024-03-06T05:56:04;101620.78;;;20.61;37.53
77975;BME280;67164;51.202;0.278;2024-03-06T05:58:28;101622.78;;;20.66;37.45
77975;BME280;67164;51.202;0.278;2024-03-06T06:00:54;101624.32;;;20.72;37.37
77975;BME280;67164;51.202;0.278;2024-03-06T06:03:19;101623.81;;;20.71;37.37
77975;BME280;67164;51.202;0.278;2024-03-06T06:05:45;101627.14;;;20.62;37.44
77975;BME280;67164;51.202;0.278;2024-03-06T06:08:10;101629.97;;;20.63;37.45
77975;BME280;67164;51.202;0.278;2024-03-06T06:10:36;101636.61;;;20.60;37.45
77975;BME280;67164;51.202;0.278;2024-03-06T06:13:06;101636.22;;;20.79;37.51
77975;BME280;67164;51.202;0.278;2024-03-06T06:15:27;101636.05;;;20.06;37.50
77975;BME280;67164;51.202;0.278;2024-03-06T06:17:53;101639.51;;;20.51;37.47
77975;BME280;67164;51.202;0.278;2024-03-06T06:20:19;101641.03;;;20.68;37.52
77975;BME280;67164;51.202;0.278;2024-03-06T06:22:44;101639.48;;;20.41;37.59
77975;BME280;67164;51.202;0.278;2024-03-06T06:25:09;101639.16;;;20.21;37.52
77975;BME280;67164;51.202;0.278;2024-03-06T06:27:35;101643.45;;;20.66;37.52
77975;BME280;67164;51.202;0.278;2024-03-06T06:30:01;101651.55;;;20.10;37.62
77975;BME280;67164;51.202;0.278;2024-03-06T06:32:27;101655.43;;;20.38;37.47
77975;BME280;67164;51.202;0.278;2024-03-06T06:34:52;101652.50;;;20.38;37.47
77975;BME280;67164;51.202;0.278;2024-03-06T06:37:18;101654.13;;;20.38;37.43
77975;BME280;67164;51.202;0.278;2024-03-06T06:39:43;101660.27;;;20.37;37.47
77975;BME280;67164;51.202;0.278;2024-03-06T06:42:09;101659.64;;;20.36;37.51
77975;BME280;67164;51.202;0.278;2024-03-06T06:44:35;101658.38;;;20.30;37.51
77975;BME280;67164;51.202;0.278;2024-03-06T06:47:00;101661.05;;;20.33;37.44
77975;BME280;67164;51.202;0.278;2024-03-06T06:49:25;101667.74;;;20.26;37.48
77975;BME280;67164;51.202;0.278;2024-03-06T06:51:51;101674.09;;;20.30;37.46
77975;BME280;67164;51.202;0.278;2024-03-06T06:54:16;101674.55;;;20.24;37.51
77975;BME280;67164;51.202;0.278;2024-03-06T06:56:42;101677.85;;;20.21;37.54
77975;BME280;67164;51.202;0.278;2024-03-06T06:59:07;101680.58;;;19.95;37.52
77975;BME280;67164;51.202;0.278;2024-03-06T07:01:32;101683.94;;;20.21;37.49
77975;BME280;67164;51.202;0.278;2024-03-06T07:03:58;101685.69;;;20.23;37.50
77975;BME280;67164;51.202;0.278;2024-03-06T07:06:23;101686.13;;;20.17;37.54
77975;BME280;67164;51.202;0.278;2024-03-06T07:08:49;101687.43;;;20.18;37.47
77975;BME280;67164;51.202;0.278;2024-03-06T07:11:16;101689.45;;;20.22;37.47
77975;BME280;67164;51.202;0.278;2024-03-06T07:13:40;101699.11;;;19.93;37.54
77975;BME280;67164;51.202;0.278;2024-03-06T07:16:06;101703.25;;;20.29;37.57
77975;BME280;67164;51.202;0.278;2024-03-06T07:18:32;101708.63;;;20.44;37.39
77975;BME280;67164;51.202;0.278;2024-03-06T07:20:57;101713.05;;;20.49;37.45
77975;BME280;67164;51.202;0.278;2024-03-06T07:23:22;101720.09;;;19.85;37.78
77975;BME280;67164;51.202;0.278;2024-03-06T07:25:48;101723.72;;;20.42;37.60
77975;BME280;67164;51.202;0.278;2024-03-06T07:28:14;101727.04;;;19.82;38.10
77975;BME280;67164;51.202;0.278;2024-03-06T07:30:39;101727.99;;;20.18;38.03
77975;BME280;67164;51.202;0.278;2024-03-06T07:33:05;101730.20;;;19.78;38.34
77975;BME280;67164;51.202;0.278;2024-03-06T07:35:30;101729.85;;;20.02;38.59
77975;BME280;67164;51.202;0.278;2024-03-06T07:37:56;101732.42;;;19.71;38.81
77975;BME280;67164;51.202;0.278;2024-03-06T07:40:22;101733.50;;;19.62;38.79
77975;BME280;67164;51.202;0.278;2024-03-06T07:42:47;101736.06;;;19.97;38.87
77975;BME280;67164;51.202;0.278;2024-03-06T07:45:13;101733.30;;;20.05;38.53
77975;BME280;67164;51.202;0.278;2024-03-06T07:47:38;101736.82;;;19.92;39.03
77975;BME280;67164;51.202;0.278;2024-03-06T07:50:04;101736.06;;;19.81;38.96
77975;BME280;67164;51.202;0.278;2024-03-06T07:52:29;101737.95;;;19.83;39.02
77975;BME280;67164;51.202;0.278;2024-03-06T07:54:54;101741.96;;;20.07;39.12
77975;BME280;67164;51.202;0.278;2024-03-06T07:57:20;101744.19;;;19.98;39.33
77975;BME280;67164;51.202;0.278;2024-03-06T07:59:45;101747.42;;;19.92;39.12
77975;BME280;67164;51.202;0.278;2024-03-06T08:02:10;101749.98;;;20.30;39.06
77975;BME280;67164;51.202;0.278;2024-03-06T08:04:36;101752.38;;;19.97;39.36
77975;BME280;67164;51.202;0.278;2024-03-06T08:07:02;101754.72;;;20.08;39.47
77975;BME280;67164;51.202;0.278;2024-03-06T08:09:27;101754.96;;;19.98;39.40
77975;BME280;67164;51.202;0.278;2024-03-06T08:11:53;101755.30;;;20.02;39.41
77975;BME280;67164;51.202;0.278;2024-03-06T08:14:19;101757.63;;;19.98;39.53
77975;BME280;67164;51.202;0.278;2024-03-06T08:16:45;101759.15;;;20.24;39.56
77975;BME280;67164;51.202;0.278;2024-03-06T08:19:10;101762.55;;;20.39;39.41
77975;BME280;67164;51.202;0.278;2024-03-06T08:21:35;101763.15;;;20.15;39.45
77975;BME280;67164;51.202;0.278;2024-03-06T08:24:01;101763.85;;;20.52;39.36
77975;BME280;67164;51.202;0.278;2024-03-06T08:26:26;101768.80;;;20.12;39.60
77975;BME280;67164;51.202;0.278;2024-03-06T08:28:55;101766.29;;;20.20;39.56
77975;BME280;67164;51.202;0.278;2024-03-06T08:31:17;101770.98;;;20.32;39.48
77975;BME280;67164;51.202;0.278;2024-03-06T08:33:43;101773.14;;;20.65;39.07
77975;BME280;67164;51.202;0.278;2024-03-06T08:36:08;101773.27;;;20.36;39.39
77975;BME280;67164;51.202;0.278;2024-03-06T08:38:34;101774.62;;;20.38;39.34
77975;BME280;67164;51.202;0.278;2024-03-06T08:40:59;101782.52;;;21.00;38.81
77975;BME280;67164;51.202;0.278;2024-03-06T08:43:25;101786.39;;;20.85;38.54
77975;BME280;67164;51.202;0.278;2024-03-06T08:45:51;101789.30;;;20.99;38.07
77975;BME280;67164;51.202;0.278;2024-03-06T08:48:16;101788.93;;;21.32;37.61
77975;BME280;67164;51.202;0.278;2024-03-06T08:50:42;101787.04;;;20.39;37.76
77975;BME280;67164;51.202;0.278;2024-03-06T08:53:07;101789.29;;;20.11;38.19
77975;BME280;67164;51.202;0.278;2024-03-06T08:55:32;101792.59;;;20.25;38.23
77975;BME280;67164;51.202;0.278;2024-03-06T08:57:58;101795.40;;;20.28;38.57
77975;BME280;67164;51.202;0.278;2024-03-06T09:00:23;101795.41;;;20.09;38.61
77975;BME280;67164;51.202;0.278;2024-03-06T09:02:48;101799.44;;;20.49;38.60
77975;BME280;67164;51.202;0.278;2024-03-06T09:05:14;101798.97;;;20.74;38.60
77975;BME280;67164;51.202;0.278;2024-03-06T09:07:39;101799.52;;;20.14;38.85
77975;BME280;67164;51.202;0.278;2024-03-06T09:10:05;101799.03;;;20.24;38.74
77975;BME280;67164;51.202;0.278;2024-03-06T09:12:31;101798.93;;;20.31;38.69
77975;BME280;67164;51.202;0.278;2024-03-06T09:14:56;101802.21;;;20.18;38.91
77975;BME280;67164;51.202;0.278;2024-03-06T09:17:21;101801.60;;;20.25;38.85
77975;BME280;67164;51.202;0.278;2024-03-06T09:19:47;101801.34;;;20.37;38.75
77975;BME280;67164;51.202;0.278;2024-03-06T09:22:12;101800.16;;;20.52;38.69
77975;BME280;67164;51.202;0.278;2024-03-06T09:24:38;101802.18;;;20.50;38.73
77975;BME280;67164;51.202;0.278;2024-03-06T09:27:04;101802.76;;;20.37;38.87
77975;BME280;67164;51.202;0.278;2024-03-06T09:29:29;101801.64;;;20.60;38.68
77975;BME280;67164;51.202;0.278;2024-03-06T09:31:54;101805.95;;;20.41;39.00
77975;BME280;67164;51.202;0.278;2024-03-06T09:34:20;101806.56;;;20.32;39.19
77975;BME280;67164;51.202;0.278;2024-03-06T09:36:47;101808.98;;;20.52;39.23
77975;BME280;67164;51.202;0.278;2024-03-06T09:39:11;101811.68;;;20.41;39.17
77975;BME280;67164;51.202;0.278;2024-03-06T09:41:37;101809.51;;;20.64;39.21
77975;BME280;67164;51.202;0.278;2024-03-06T09:44:02;101810.29;;;20.48;39.13
77975;BME280;67164;51.202;0.278;2024-03-06T09:46:29;101813.98;;;20.11;39.33
77975;BME280;67164;51.202;0.278;2024-03-06T09:48:54;101819.45;;;20.50;39.25
77975;BME280;67164;51.202;0.278;2024-03-06T09:51:19;101819.89;;;20.42;39.04
77975;BME280;67164;51.202;0.278;2024-03-06T09:53:44;101822.40;;;20.75;38.90
77975;BME280;67164;51.202;0.278;2024-03-06T09:56:10;101825.19;;;20.41;39.18
77975;BME280;67164;51.202;0.278;2024-03-06T09:58:35;101831.35;;;20.69;39.01
77975;BME280;67164;51.202;0.278;2024-03-06T10:01:01;101834.49;;;21.17;38.60
77975;BME280;67164;51.202;0.278;2024-03-06T10:03:25;101835.16;;;20.95;38.47
77975;BME280;67164;51.202;0.278;2024-03-06T10:05:51;101839.71;;;20.94;38.43
77975;BME280;67164;51.202;0.278;2024-03-06T10:08:17;101838.96;;;20.83;38.63
77975;BME280;67164;51.202;0.278;2024-03-06T10:10:42;101838.75;;;20.98;38.76
77975;BME280;67164;51.202;0.278;2024-03-06T10:13:08;101839.20;;;21.05;38.71
77975;BME280;67164;51.202;0.278;2024-03-06T10:15:33;101836.32;;;21.00;38.83
77975;BME280;67164;51.202;0.278;2024-03-06T10:18:11;101836.99;;;20.71;38.92
77975;BME280;67164;51.202;0.278;2024-03-06T10:20:24;101833.19;;;20.89;38.72
77975;BME280;67164;51.202;0.278;2024-03-06T10:22:50;101832.00;;;20.67;38.72
77975;BME280;67164;51.202;0.278;2024-03-06T10:25:14;101832.32;;;21.07;38.53
77975;BME280;67164;51.202;0.278;2024-03-06T10:27:40;101835.03;;;21.17;38.39
77975;BME280;67164;51.202;0.278;2024-03-06T10:30:07;101833.64;;;21.25;38.65
77975;BME280;67164;51.202;0.278;2024-03-06T10:32:31;101835.75;;;21.24;38.83
77975;BME280;67164;51.202;0.278;2024-03-06T10:34:57;101837.32;;;21.25;38.81
77975;BME280;67164;51.202;0.278;2024-03-06T10:37:22;101838.30;;;20.53;39.25
77975;BME280;67164;51.202;0.278;2024-03-06T10:39:51;101836.64;;;20.74;39.35
77975;BME280;67164;51.202;0.278;2024-03-06T10:42:13;101836.45;;;20.99;39.41
77975;BME280;67164;51.202;0.278;2024-03-06T10:44:43;101837.80;;;20.93;39.59
77975;BME280;67164;51.202;0.278;2024-03-06T10:47:08;101840.04;;;20.66;39.70
77975;BME280;67164;51.202;0.278;2024-03-06T10:49:31;101842.40;;;20.69;39.71
77975;BME280;67164;51.202;0.278;2024-03-06T10:51:58;101844.41;;;20.83;39.52
77975;BME280;67164;51.202;0.278;2024-03-06T10:54:21;101844.17;;;20.86;39.30
77975;BME280;67164;51.202;0.278;2024-03-06T10:56:46;101848.73;;;20.99;38.83
77975;BME280;67164;51.202;0.278;2024-03-06T10:59:11;101846.57;;;20.98;39.05
77975;BME280;67164;51.202;0.278;2024-03-06T11:01:37;101850.41;;;21.15;39.27
77975;BME280;67164;51.202;0.278;2024-03-06T11:04:02;101854.26;;;21.02;39.47
77975;BME280;67164;51.202;0.278;2024-03-06T11:06:26;101852.96;;;20.61;39.46
77975;BME280;67164;51.202;0.278;2024-03-06T11:08:52;101854.15;;;21.01;39.32
77975;BME280;67164;51.202;0.278;2024-03-06T11:11:22;101856.52;;;20.75;39.37
77975;BME280;67164;51.202;0.278;2024-03-06T11:13:43;101860.56;;;20.66;39.55
77975;BME280;67164;51.202;0.278;2024-03-06T11:16:09;101862.66;;;20.86;39.68
77975;BME280;67164;51.202;0.278;2024-03-06T11:18:44;101862.44;;;20.81;39.75
77975;BME280;67164;51.202;0.278;2024-03-06T11:23:26;101855.88;;;20.96;39.57
77975;BME280;67164;51.202;0.278;2024-03-06T11:26:00;101855.29;;;20.97;39.55
77975;BME280;67164;51.202;0.278;2024-03-06T11:28:18;101857.18;;;21.30;39.45
77975;BME280;67164;51.202;0.278;2024-03-06T11:30:44;101853.98;;;20.99;39.54
77975;BME280;67164;51.202;0.278;2024-03-06T11:33:12;101852.50;;;20.99;39.55
77975;BME280;67164;51.202;0.278;2024-03-06T11:35:34;101855.60;;;20.74;39.58
77975;BME280;67164;51.202;0.278;2024-03-06T11:37:59;101852.19;;;20.70;39.64
77975;BME280;67164;51.202;0.278;2024-03-06T11:40:24;101857.40;;;21.19;39.40
77975;BME280;67164;51.202;0.278;2024-03-06T11:42:49;101858.20;;;21.21;39.36
77975;BME280;67164;51.202;0.278;2024-03-06T11:45:16;101852.27;;;21.14;39.40
77975;BME280;67164;51.202;0.278;2024-03-06T11:50:07;101850.96;;;20.85;39.47
77975;BME280;67164;51.202;0.278;2024-03-06T11:52:31;101853.43;;;21.09;39.42
77975;BME280;67164;51.202;0.278;2024-03-06T11:54:57;101855.23;;;21.48;39.23
77975;BME280;67164;51.202;0.278;2024-03-06T11:57:22;101853.46;;;21.27;38.90
77975;BME280;67164;51.202;0.278;2024-03-06T11:59:48;101853.90;;;21.12;39.12
77975;BME280;67164;51.202;0.278;2024-03-06T12:02:14;101852.71;;;21.30;39.17
77975;BME280;67164;51.202;0.278;2024-03-06T12:04:40;101855.84;;;21.44;39.04
77975;BME280;67164;51.202;0.278;2024-03-06T12:07:05;101856.51;;;21.61;38.76
77975;BME280;67164;51.202;0.278;2024-03-06T12:09:31;101858.03;;;21.34;38.69
77975;BME280;67164;51.202;0.278;2024-03-06T12:11:56;101856.76;;;21.29;38.64
77975;BME280;67164;51.202;0.278;2024-03-06T12:14:21;101855.35;;;21.47;38.22
77975;BME280;67164;51.202;0.278;2024-03-06T12:16:55;101854.69;;;21.79;37.97
77975;BME280;67164;51.202;0.278;2024-03-06T12:19:12;101849.66;;;21.40;38.02
77975;BME280;67164;51.202;0.278;2024-03-06T12:21:39;101846.62;;;21.39;37.84
77975;BME280;67164;51.202;0.278;2024-03-06T12:24:03;101845.60;;;21.35;37.80
77975;BME280;67164;51.202;0.278;2024-03-06T12:26:29;101846.07;;;21.52;37.82
77975;BME280;67164;51.202;0.278;2024-03-06T12:29:05;101845.25;;;21.58;37.64
77975;BME280;67164;51.202;0.278;2024-03-06T12:31:20;101842.72;;;21.56;37.45
77975;BME280;67164;51.202;0.278;2024-03-06T12:33:45;101844.30;;;21.31;37.20
77975;BME280;67164;51.202;0.278;2024-03-06T12:36:10;101841.65;;;21.65;36.97
77975;BME280;67164;51.202;0.278;2024-03-06T12:38:37;101841.33;;;21.30;36.97
77975;BME280;67164;51.202;0.278;2024-03-06T12:41:02;101841.24;;;21.72;36.58
77975;BME280;67164;51.202;0.278;2024-03-06T12:43:27;101844.01;;;21.26;36.69
77975;BME280;67164;51.202;0.278;2024-03-06T12:45:52;101843.72;;;21.22;36.87